sensor_id;sensor_type;location;lat;lon;timestamp;P1;durP1;ratioP1;P2;durP2;ratioP2
17441;SDS011;8838;50.144;8.176;2023-06-24T00:00:21;5.93;;;5.00;;
17441;SDS011;8838;50.144;8.176;2023-06-24T00:02:47;5.75;;;5.03;;
17441;SDS011;8838;50.144;8.176;2023-06-24T00:05:16;7.28;;;5.30;;
17441;SDS011;8838;50.144;8.176;2023-06-24T00:07:43;6.43;;;5.00;;
17441;SDS011;8838;50.144;8.176;2023-06-24T00:10:10;5.78;;;4.80;;
17441;SDS011;8838;50.144;8.176;2023-06-24T00:12:38;5.93;;;4.97;;
17441;SDS011;8838;50.144;8.176;2023-06-24T00:15:06;5.63;;;4.95;;
17441;SDS011;8838;50.144;8.176;2023-06-24T00:17:35;6.85;;;4.57;;
17441;SDS011;8838;50.144;8.176;2023-06-24T00:20:02;9.27;;;4.80;;
17441;SDS011;8838;50.144;8.176;2023-06-24T00:22:32;5.53;;;4.80;;
17441;SDS011;8838;50.144;8.176;2023-06-24T00:24:59;5.95;;;4.70;;
17441;SDS011;8838;50.144;8.176;2023-06-24T00:27:26;5.28;;;4.57;;
17441;SDS011;8838;50.144;8.176;2023-06-24T00:29:53;6.13;;;4.82;;
17441;SDS011;8838;50.144;8.176;2023-06-24T00:32:19;5.78;;;4.93;;
17441;SDS011;8838;50.144;8.176;2023-06-24T00:34:47;5.68;;;5.07;;
17441;SDS011;8838;50.144;8.176;2023-06-24T00:37:15;5.82;;;4.97;;
17441;SDS011;8838;50.144;8.176;2023-06-24T00:39:42;5.88;;;5.03;;
17441;SDS011;8838;50.144;8.176;2023-06-24T00:42:09;8.00;;;5.32;;
17441;SDS011;8838;50.144;8.176;2023-06-24T00:44:36;7.70;;;4.97;;
17441;SDS011;8838;50.144;8.176;2023-06-24T00:47:04;5.78;;;5.00;;
17441;SDS011;8838;50.144;8.176;2023-06-24T00:49:33;6.78;;;5.00;;
17441;SDS011;8838;50.144;8.176;2023-06-24T00:52:01;6.05;;;4.70;;
17441;SDS011;8838;50.144;8.176;2023-06-24T00:54:28;7.65;;;5.30;;
17441;SDS011;8838;50.144;8.176;2023-06-24T00:56:56;7.38;;;5.13;;
17441;SDS011;8838;50.144;8.176;2023-06-24T00:59:25;6.93;;;5.05;;
17441;SDS011;8838;50.144;8.176;2023-06-24T01:01:55;7.53;;;5.00;;
17441;SDS011;8838;50.144;8.176;2023-06-24T01:04:22;5.97;;;4.50;;
17441;SDS011;8838;50.144;8.176;2023-06-24T01:06:50;7.28;;;5.13;;
17441;SDS011;8838;50.144;8.176;2023-06-24T01:09:19;5.30;;;4.80;;
17441;SDS011;8838;50.144;8.176;2023-06-24T01:11:47;6.35;;;4.88;;
17441;SDS011;8838;50.144;8.176;2023-06-24T01:14:13;6.55;;;5.40;;
17441;SDS011;8838;50.144;8.176;2023-06-24T01:16:47;7.60;;;5.60;;
17441;SDS011;8838;50.144;8.176;2023-06-24T01:19:33;6.53;;;4.88;;
17441;SDS011;8838;50.144;8.176;2023-06-24T01:22:17;8.43;;;5.55;;
17441;SDS011;8838;50.144;8.176;2023-06-24T01:24:59;6.20;;;5.60;;
17441;SDS011;8838;50.144;8.176;2023-06-24T01:27:45;7.15;;;5.20;;
17441;SDS011;8838;50.144;8.176;2023-06-24T01:30:29;5.45;;;4.88;;
17441;SDS011;8838;50.144;8.176;2023-06-24T01:33:10;7.43;;;5.18;;
17441;SDS011;8838;50.144;8.176;2023-06-24T01:35:39;7.47;;;4.95;;
17441;SDS011;8838;50.144;8.176;2023-06-24T01:38:09;7.90;;;5.35;;
17441;SDS011;8838;50.144;8.176;2023-06-24T01:40:42;5.75;;;4.88;;
17441;SDS011;8838;50.144;8.176;2023-06-24T01:43:11;6.97;;;5.63;;
17441;SDS011;8838;50.144;8.176;2023-06-24T01:45:40;6.85;;;5.60;;
17441;SDS011;8838;50.144;8.176;2023-06-24T01:48:11;5.90;;;5.30;;
17441;SDS011;8838;50.144;8.176;2023-06-24T01:50:42;6.15;;;5.10;;
17441;SDS011;8838;50.144;8.176;2023-06-24T01:53:14;5.78;;;5.07;;
17441;SDS011;8838;50.144;8.176;2023-06-24T01:55:45;7.13;;;4.90;;
17441;SDS011;8838;50.144;8.176;2023-06-24T01:58:14;6.88;;;5.05;;
17441;SDS011;8838;50.144;8.176;2023-06-24T02:00:45;5.35;;;4.68;;
17441;SDS011;8838;50.144;8.176;2023-06-24T02:03:16;8.05;;;4.97;;
17441;SDS011;8838;50.144;8.176;2023-06-24T02:05:44;5.38;;;4.85;;
17441;SDS011;8838;50.144;8.176;2023-06-24T02:08:13;6.03;;;4.70;;
17441;SDS011;8838;50.144;8.176;2023-06-24T02:10:41;7.50;;;5.55;;
17441;SDS011;8838;50.144;8.176;2023-06-24T02:13:12;6.05;;;5.15;;
17441;SDS011;8838;50.144;8.176;2023-06-24T02:15:39;7.97;;;5.55;;
17441;SDS011;8838;50.144;8.176;2023-06-24T02:18:08;8.40;;;5.60;;
17441;SDS011;8838;50.144;8.176;2023-06-24T02:20:37;6.80;;;5.80;;
17441;SDS011;8838;50.144;8.176;2023-06-24T02:23:06;6.38;;;5.30;;
17441;SDS011;8838;50.144;8.176;2023-06-24T02:25:34;5.85;;;5.25;;
17441;SDS011;8838;50.144;8.176;2023-06-24T02:28:04;6.10;;;5.50;;
17441;SDS011;8838;50.144;8.176;2023-06-24T02:30:31;6.47;;;5.78;;
17441;SDS011;8838;50.144;8.176;2023-06-24T02:33:00;6.93;;;5.53;;
17441;SDS011;8838;50.144;8.176;2023-06-24T02:35:27;7.70;;;5.13;;
17441;SDS011;8838;50.144;8.176;2023-06-24T02:37:55;6.47;;;5.85;;
17441;SDS011;8838;50.144;8.176;2023-06-24T02:40:22;6.80;;;5.75;;
17441;SDS011;8838;50.144;8.176;2023-06-24T02:42:51;6.70;;;5.93;;
17441;SDS011;8838;50.144;8.176;2023-06-24T02:45:18;7.35;;;5.65;;
17441;SDS011;8838;50.144;8.176;2023-06-24T02:47:45;8.70;;;5.82;;
17441;SDS011;8838;50.144;8.176;2023-06-24T02:50:14;7.80;;;5.20;;
17441;SDS011;8838;50.144;8.176;2023-06-24T02:52:41;6.25;;;5.13;;
17441;SDS011;8838;50.144;8.176;2023-06-24T02:55:09;5.65;;;5.07;;
17441;SDS011;8838;50.144;8.176;2023-06-24T02:57:37;6.78;;;5.50;;
17441;SDS011;8838;50.144;8.176;2023-06-24T03:00:05;5.82;;;5.22;;
17441;SDS011;8838;50.144;8.176;2023-06-24T03:02:37;6.10;;;5.05;;
17441;SDS011;8838;50.144;8.176;2023-06-24T03:05:04;7.55;;;5.45;;
17441;SDS011;8838;50.144;8.176;2023-06-24T03:07:33;7.05;;;5.60;;
17441;SDS011;8838;50.144;8.176;2023-06-24T03:10:02;9.32;;;5.93;;
17441;SDS011;8838;50.144;8.176;2023-06-24T03:12:31;6.13;;;5.53;;
17441;SDS011;8838;50.144;8.176;2023-06-24T03:14:58;6.57;;;5.63;;
17441;SDS011;8838;50.144;8.176;2023-06-24T03:17:25;7.43;;;5.70;;
17441;SDS011;8838;50.144;8.176;2023-06-24T03:19:52;6.50;;;5.90;;
17441;SDS011;8838;50.144;8.176;2023-06-24T03:22:19;5.75;;;5.25;;
17441;SDS011;8838;50.144;8.176;2023-06-24T03:24:47;6.93;;;5.28;;
17441;SDS011;8838;50.144;8.176;2023-06-24T03:27:14;6.60;;;5.88;;
17441;SDS011;8838;50.144;8.176;2023-06-24T03:29:42;7.25;;;5.60;;
17441;SDS011;8838;50.144;8.176;2023-06-24T03:32:09;7.35;;;5.13;;
17441;SDS011;8838;50.144;8.176;2023-06-24T03:34:35;8.57;;;5.30;;
17441;SDS011;8838;50.144;8.176;2023-06-24T03:37:02;10.68;;;5.65;;
17441;SDS011;8838;50.144;8.176;2023-06-24T03:39:30;5.75;;;5.07;;
17441;SDS011;8838;50.144;8.176;2023-06-24T03:41:56;6.78;;;5.60;;
17441;SDS011;8838;50.144;8.176;2023-06-24T03:44:23;5.88;;;5.28;;
17441;SDS011;8838;50.144;8.176;2023-06-24T03:46:52;9.00;;;5.63;;
17441;SDS011;8838;50.144;8.176;2023-06-24T03:49:18;6.72;;;5.70;;
17441;SDS011;8838;50.144;8.176;2023-06-24T03:51:45;7.22;;;5.43;;
17441;SDS011;8838;50.144;8.176;2023-06-24T03:54:12;7.63;;;5.70;;
17441;SDS011;8838;50.144;8.176;2023-06-24T03:56:39;7.75;;;5.78;;
17441;SDS011;8838;50.144;8.176;2023-06-24T03:59:06;7.47;;;5.30;;
17441;SDS011;8838;50.144;8.176;2023-06-24T04:01:33;7.40;;;5.18;;
17441;SDS011;8838;50.144;8.176;2023-06-24T04:04:02;6.13;;;5.22;;
17441;SDS011;8838;50.144;8.176;2023-06-24T04:06:29;5.65;;;4.90;;
17441;SDS011;8838;50.144;8.176;2023-06-24T04:08:56;5.85;;;5.05;;
17441;SDS011;8838;50.144;8.176;2023-06-24T04:11:23;5.90;;;5.10;;
17441;SDS011;8838;50.144;8.176;2023-06-24T04:13:50;10.02;;;5.85;;
17441;SDS011;8838;50.144;8.176;2023-06-24T04:16:17;7.60;;;5.35;;
17441;SDS011;8838;50.144;8.176;2023-06-24T04:18:44;6.10;;;5.50;;
17441;SDS011;8838;50.144;8.176;2023-06-24T04:21:12;8.15;;;5.80;;
17441;SDS011;8838;50.144;8.176;2023-06-24T04:23:39;5.72;;;5.00;;
17441;SDS011;8838;50.144;8.176;2023-06-24T04:26:06;6.07;;;5.47;;
17441;SDS011;8838;50.144;8.176;2023-06-24T04:28:32;6.38;;;5.63;;
17441;SDS011;8838;50.144;8.176;2023-06-24T04:30:59;5.53;;;5.00;;
17441;SDS011;8838;50.144;8.176;2023-06-24T04:33:26;7.07;;;5.28;;
17441;SDS011;8838;50.144;8.176;2023-06-24T04:35:53;8.43;;;5.30;;
17441;SDS011;8838;50.144;8.176;2023-06-24T04:38:21;6.63;;;5.68;;
17441;SDS011;8838;50.144;8.176;2023-06-24T04:40:48;8.57;;;5.45;;
17441;SDS011;8838;50.144;8.176;2023-06-24T04:43:15;6.22;;;5.60;;
17441;SDS011;8838;50.144;8.176;2023-06-24T04:45:42;8.77;;;5.40;;
17441;SDS011;8838;50.144;8.176;2023-06-24T04:48:08;7.15;;;5.50;;
17441;SDS011;8838;50.144;8.176;2023-06-24T04:50:35;7.90;;;5.40;;
17441;SDS011;8838;50.144;8.176;2023-06-24T04:53:02;9.45;;;5.38;;
17441;SDS011;8838;50.144;8.176;2023-06-24T04:55:30;8.48;;;5.20;;
17441;SDS011;8838;50.144;8.176;2023-06-24T04:57:57;9.13;;;5.20;;
17441;SDS011;8838;50.144;8.176;2023-06-24T05:00:24;8.93;;;5.90;;
17441;SDS011;8838;50.144;8.176;2023-06-24T05:02:50;8.23;;;5.93;;
17441;SDS011;8838;50.144;8.176;2023-06-24T05:05:17;7.25;;;5.60;;
17441;SDS011;8838;50.144;8.176;2023-06-24T05:07:45;6.82;;;6.05;;
17441;SDS011;8838;50.144;8.176;2023-06-24T05:10:12;10.50;;;5.97;;
17441;SDS011;8838;50.144;8.176;2023-06-24T05:12:40;7.68;;;5.55;;
17441;SDS011;8838;50.144;8.176;2023-06-24T05:15:07;7.03;;;5.93;;
17441;SDS011;8838;50.144;8.176;2023-06-24T05:17:34;8.48;;;5.18;;
17441;SDS011;8838;50.144;8.176;2023-06-24T05:20:01;6.80;;;5.13;;
17441;SDS011;8838;50.144;8.176;2023-06-24T05:22:29;8.10;;;5.25;;
17441;SDS011;8838;50.144;8.176;2023-06-24T05:24:55;7.97;;;5.75;;
17441;SDS011;8838;50.144;8.176;2023-06-24T05:27:22;6.70;;;5.78;;
17441;SDS011;8838;50.144;8.176;2023-06-24T05:29:50;6.97;;;5.47;;
17441;SDS011;8838;50.144;8.176;2023-06-24T05:32:17;8.63;;;5.75;;
17441;SDS011;8838;50.144;8.176;2023-06-24T05:34:45;9.00;;;5.78;;
17441;SDS011;8838;50.144;8.176;2023-06-24T05:37:12;9.23;;;5.35;;
17441;SDS011;8838;50.144;8.176;2023-06-24T05:39:39;6.45;;;4.97;;
17441;SDS011;8838;50.144;8.176;2023-06-24T05:42:06;7.78;;;5.28;;
17441;SDS011;8838;50.144;8.176;2023-06-24T05:44:33;7.13;;;5.55;;
17441;SDS011;8838;50.144;8.176;2023-06-24T05:47:01;6.78;;;5.10;;
17441;SDS011;8838;50.144;8.176;2023-06-24T05:49:28;8.82;;;5.30;;
17441;SDS011;8838;50.144;8.176;2023-06-24T05:51:55;6.22;;;5.47;;
17441;SDS011;8838;50.144;8.176;2023-06-24T05:54:22;7.60;;;5.32;;
17441;SDS011;8838;50.144;8.176;2023-06-24T05:56:49;7.82;;;5.40;;
17441;SDS011;8838;50.144;8.176;2023-06-24T05:59:16;6.20;;;4.82;;
17441;SDS011;8838;50.144;8.176;2023-06-24T06:01:43;5.85;;;5.25;;
17441;SDS011;8838;50.144;8.176;2023-06-24T06:04:11;8.07;;;5.32;;
17441;SDS011;8838;50.144;8.176;2023-06-24T06:06:38;5.68;;;5.00;;
17441;SDS011;8838;50.144;8.176;2023-06-24T06:09:05;7.85;;;5.60;;
17441;SDS011;8838;50.144;8.176;2023-06-24T06:11:32;5.80;;;4.80;;
17441;SDS011;8838;50.144;8.176;2023-06-24T06:13:59;8.48;;;5.40;;
17441;SDS011;8838;50.144;8.176;2023-06-24T06:16:25;6.85;;;5.47;;
17441;SDS011;8838;50.144;8.176;2023-06-24T06:18:53;5.97;;;4.72;;
17441;SDS011;8838;50.144;8.176;2023-06-24T06:21:21;6.75;;;4.85;;
17441;SDS011;8838;50.144;8.176;2023-06-24T06:23:48;5.97;;;4.60;;
17441;SDS011;8838;50.144;8.176;2023-06-24T06:26:15;9.55;;;5.22;;
17441;SDS011;8838;50.144;8.176;2023-06-24T06:28:42;5.30;;;4.72;;
17441;SDS011;8838;50.144;8.176;2023-06-24T06:31:09;9.07;;;5.18;;
17441;SDS011;8838;50.144;8.176;2023-06-24T06:33:35;6.95;;;4.63;;
17441;SDS011;8838;50.144;8.176;2023-06-24T06:36:02;6.65;;;4.88;;
17441;SDS011;8838;50.144;8.176;2023-06-24T06:38:31;9.50;;;4.90;;
17441;SDS011;8838;50.144;8.176;2023-06-24T06:40:58;7.90;;;4.53;;
17441;SDS011;8838;50.144;8.176;2023-06-24T06:43:25;6.50;;;3.92;;
17441;SDS011;8838;50.144;8.176;2023-06-24T06:45:54;4.10;;;3.67;;
17441;SDS011;8838;50.144;8.176;2023-06-24T06:48:22;5.78;;;3.72;;
17441;SDS011;8838;50.144;8.176;2023-06-24T06:50:48;6.28;;;4.03;;
17441;SDS011;8838;50.144;8.176;2023-06-24T06:53:17;4.85;;;4.15;;
17441;SDS011;8838;50.144;8.176;2023-06-24T06:55:45;4.50;;;3.45;;
17441;SDS011;8838;50.144;8.176;2023-06-24T06:58:12;4.88;;;3.90;;
17441;SDS011;8838;50.144;8.176;2023-06-24T07:00:39;5.40;;;3.67;;
17441;SDS011;8838;50.144;8.176;2023-06-24T07:03:06;6.28;;;3.95;;
17441;SDS011;8838;50.144;8.176;2023-06-24T07:05:33;5.82;;;4.25;;
17441;SDS011;8838;50.144;8.176;2023-06-24T07:07:59;4.68;;;3.30;;
17441;SDS011;8838;50.144;8.176;2023-06-24T07:10:29;6.38;;;4.10;;
17441;SDS011;8838;50.144;8.176;2023-06-24T07:12:58;5.90;;;4.20;;
17441;SDS011;8838;50.144;8.176;2023-06-24T07:15:27;6.00;;;4.05;;
17441;SDS011;8838;50.144;8.176;2023-06-24T07:17:54;6.30;;;4.28;;
17441;SDS011;8838;50.144;8.176;2023-06-24T07:20:21;5.85;;;4.15;;
17441;SDS011;8838;50.144;8.176;2023-06-24T07:22:48;8.93;;;4.20;;
17441;SDS011;8838;50.144;8.176;2023-06-24T07:25:15;5.38;;;4.30;;
17441;SDS011;8838;50.144;8.176;2023-06-24T07:27:42;8.23;;;4.45;;
17441;SDS011;8838;50.144;8.176;2023-06-24T07:30:12;6.53;;;4.82;;
17441;SDS011;8838;50.144;8.176;2023-06-24T07:32:39;4.65;;;3.90;;
17441;SDS011;8838;50.144;8.176;2023-06-24T07:35:06;4.35;;;3.95;;
17441;SDS011;8838;50.144;8.176;2023-06-24T07:37:34;6.80;;;3.80;;
17441;SDS011;8838;50.144;8.176;2023-06-24T07:40:01;8.90;;;6.88;;
17441;SDS011;8838;50.144;8.176;2023-06-24T07:42:30;7.57;;;5.35;;
17441;SDS011;8838;50.144;8.176;2023-06-24T07:44:57;5.82;;;4.25;;
17441;SDS011;8838;50.144;8.176;2023-06-24T07:47:25;9.23;;;4.80;;
17441;SDS011;8838;50.144;8.176;2023-06-24T07:49:52;6.60;;;3.78;;
17441;SDS011;8838;50.144;8.176;2023-06-24T07:52:18;5.43;;;4.07;;
17441;SDS011;8838;50.144;8.176;2023-06-24T07:54:45;4.07;;;3.47;;
17441;SDS011;8838;50.144;8.176;2023-06-24T07:57:12;6.32;;;4.07;;
17441;SDS011;8838;50.144;8.176;2023-06-24T07:59:39;6.93;;;3.90;;
17441;SDS011;8838;50.144;8.176;2023-06-24T08:02:06;7.50;;;3.72;;
17441;SDS011;8838;50.144;8.176;2023-06-24T08:04:34;5.35;;;3.72;;
17441;SDS011;8838;50.144;8.176;2023-06-24T08:07:02;7.22;;;4.07;;
17441;SDS011;8838;50.144;8.176;2023-06-24T08:09:29;7.35;;;4.05;;
17441;SDS011;8838;50.144;8.176;2023-06-24T08:11:56;4.88;;;4.18;;
17441;SDS011;8838;50.144;8.176;2023-06-24T08:14:23;4.43;;;3.65;;
17441;SDS011;8838;50.144;8.176;2023-06-24T08:16:50;3.92;;;3.30;;
17441;SDS011;8838;50.144;8.176;2023-06-24T08:19:16;4.57;;;3.45;;
17441;SDS011;8838;50.144;8.176;2023-06-24T08:21:45;5.03;;;4.30;;
17441;SDS011;8838;50.144;8.176;2023-06-24T08:24:11;4.10;;;3.17;;
17441;SDS011;8838;50.144;8.176;2023-06-24T08:26:38;6.20;;;4.13;;
17441;SDS011;8838;50.144;8.176;2023-06-24T08:29:05;6.47;;;4.80;;
17441;SDS011;8838;50.144;8.176;2023-06-24T08:31:32;5.45;;;4.45;;
17441;SDS011;8838;50.144;8.176;2023-06-24T08:33:59;5.57;;;4.40;;
17441;SDS011;8838;50.144;8.176;2023-06-24T08:36:27;5.72;;;3.83;;
17441;SDS011;8838;50.144;8.176;2023-06-24T08:38:56;5.85;;;3.95;;
17441;SDS011;8838;50.144;8.176;2023-06-24T08:41:23;6.22;;;3.65;;
17441;SDS011;8838;50.144;8.176;2023-06-24T08:43:51;5.95;;;4.05;;
17441;SDS011;8838;50.144;8.176;2023-06-24T08:46:18;5.55;;;4.20;;
17441;SDS011;8838;50.144;8.176;2023-06-24T08:48:46;4.75;;;3.83;;
17441;SDS011;8838;50.144;8.176;2023-06-24T08:51:15;4.97;;;4.05;;
17441;SDS011;8838;50.144;8.176;2023-06-24T08:53:45;4.57;;;3.80;;
17441;SDS011;8838;50.144;8.176;2023-06-24T08:56:15;5.95;;;4.50;;
17441;SDS011;8838;50.144;8.176;2023-06-24T08:58:42;5.75;;;4.07;;
17441;SDS011;8838;50.144;8.176;2023-06-24T09:01:09;5.15;;;3.95;;
17441;SDS011;8838;50.144;8.176;2023-06-24T09:03:37;5.07;;;4.20;;
17441;SDS011;8838;50.144;8.176;2023-06-24T09:06:03;4.13;;;3.50;;
17441;SDS011;8838;50.144;8.176;2023-06-24T09:08:30;4.10;;;3.70;;
17441;SDS011;8838;50.144;8.176;2023-06-24T09:11:00;4.10;;;3.70;;
17441;SDS011;8838;50.144;8.176;2023-06-24T09:13:34;5.65;;;3.78;;
17441;SDS011;8838;50.144;8.176;2023-06-24T09:16:10;4.93;;;3.85;;
17441;SDS011;8838;50.144;8.176;2023-06-24T09:18:39;4.97;;;3.58;;
17441;SDS011;8838;50.144;8.176;2023-06-24T09:21:06;4.35;;;3.80;;
17441;SDS011;8838;50.144;8.176;2023-06-24T09:23:35;5.60;;;3.83;;
17441;SDS011;8838;50.144;8.176;2023-06-24T09:26:03;5.50;;;3.80;;
17441;SDS011;8838;50.144;8.176;2023-06-24T09:28:31;4.95;;;3.58;;
17441;SDS011;8838;50.144;8.176;2023-06-24T09:31:06;4.72;;;3.60;;
17441;SDS011;8838;50.144;8.176;2023-06-24T09:33:33;4.03;;;3.63;;
17441;SDS011;8838;50.144;8.176;2023-06-24T09:36:01;4.80;;;4.03;;
17441;SDS011;8838;50.144;8.176;2023-06-24T09:38:33;4.20;;;3.75;;
17441;SDS011;8838;50.144;8.176;2023-06-24T09:41:04;5.20;;;4.65;;
17441;SDS011;8838;50.144;8.176;2023-06-24T09:43:33;5.28;;;3.63;;
17441;SDS011;8838;50.144;8.176;2023-06-24T09:46:01;4.90;;;3.65;;
17441;SDS011;8838;50.144;8.176;2023-06-24T09:48:29;4.25;;;3.65;;
17441;SDS011;8838;50.144;8.176;2023-06-24T09:50:56;5.32;;;3.78;;
17441;SDS011;8838;50.144;8.176;2023-06-24T09:53:25;8.40;;;3.95;;
17441;SDS011;8838;50.144;8.176;2023-06-24T09:55:54;7.95;;;6.05;;
17441;SDS011;8838;50.144;8.176;2023-06-24T09:58:21;7.78;;;5.43;;
17441;SDS011;8838;50.144;8.176;2023-06-24T10:00:48;4.75;;;3.40;;
17441;SDS011;8838;50.144;8.176;2023-06-24T10:03:16;5.97;;;3.85;;
17441;SDS011;8838;50.144;8.176;2023-06-24T10:05:44;6.40;;;3.38;;
17441;SDS011;8838;50.144;8.176;2023-06-24T10:08:13;4.10;;;3.70;;
17441;SDS011;8838;50.144;8.176;2023-06-24T10:10:43;5.82;;;4.13;;
17441;SDS011;8838;50.144;8.176;2023-06-24T10:13:10;4.20;;;3.78;;
17441;SDS011;8838;50.144;8.176;2023-06-24T10:15:37;7.68;;;5.40;;
17441;SDS011;8838;50.144;8.176;2023-06-24T10:18:10;5.10;;;4.15;;
17441;SDS011;8838;50.144;8.176;2023-06-24T10:21:02;7.05;;;4.22;;
17441;SDS011;8838;50.144;8.176;2023-06-24T10:23:30;4.63;;;3.28;;
17441;SDS011;8838;50.144;8.176;2023-06-24T10:25:57;14.98;;;4.30;;
17441;SDS011;8838;50.144;8.176;2023-06-24T10:28:24;5.40;;;4.40;;
17441;SDS011;8838;50.144;8.176;2023-06-24T10:30:54;4.82;;;4.22;;
17441;SDS011;8838;50.144;8.176;2023-06-24T10:33:23;4.20;;;3.80;;
17441;SDS011;8838;50.144;8.176;2023-06-24T10:35:50;4.65;;;4.10;;
17441;SDS011;8838;50.144;8.176;2023-06-24T10:38:19;6.03;;;4.57;;
17441;SDS011;8838;50.144;8.176;2023-06-24T10:40:46;6.95;;;3.90;;
17441;SDS011;8838;50.144;8.176;2023-06-24T10:46:06;5.10;;;3.95;;
17441;SDS011;8838;50.144;8.176;2023-06-24T10:48:45;6.25;;;4.32;;
17441;SDS011;8838;50.144;8.176;2023-06-24T10:51:14;5.88;;;4.80;;
17441;SDS011;8838;50.144;8.176;2023-06-24T10:53:42;5.82;;;4.55;;
17441;SDS011;8838;50.144;8.176;2023-06-24T10:56:09;6.30;;;4.20;;
17441;SDS011;8838;50.144;8.176;2023-06-24T10:58:37;5.75;;;4.05;;
17441;SDS011;8838;50.144;8.176;2023-06-24T11:01:07;3.97;;;3.58;;
17441;SDS011;8838;50.144;8.176;2023-06-24T11:03:34;5.78;;;3.80;;
17441;SDS011;8838;50.144;8.176;2023-06-24T11:06:03;5.28;;;4.32;;
17441;SDS011;8838;50.144;8.176;2023-06-24T11:08:30;5.25;;;3.75;;
17441;SDS011;8838;50.144;8.176;2023-06-24T11:10:59;4.10;;;3.70;;
17441;SDS011;8838;50.144;8.176;2023-06-24T11:13:27;4.32;;;3.80;;
17441;SDS011;8838;50.144;8.176;2023-06-24T11:15:59;7.03;;;3.97;;
17441;SDS011;8838;50.144;8.176;2023-06-24T11:18:26;8.73;;;4.22;;
17441;SDS011;8838;50.144;8.176;2023-06-24T11:21:02;5.13;;;3.88;;
17441;SDS011;8838;50.144;8.176;2023-06-24T11:23:31;5.22;;;4.05;;
17441;SDS011;8838;50.144;8.176;2023-06-24T11:26:00;5.50;;;4.22;;
17441;SDS011;8838;50.144;8.176;2023-06-24T11:28:30;6.18;;;4.43;;
17441;SDS011;8838;50.144;8.176;2023-06-24T11:31:05;5.15;;;4.53;;
17441;SDS011;8838;50.144;8.176;2023-06-24T11:33:32;5.38;;;4.20;;
17441;SDS011;8838;50.144;8.176;2023-06-24T11:36:00;4.50;;;3.85;;
17441;SDS011;8838;50.144;8.176;2023-06-24T11:38:27;7.63;;;3.90;;
17441;SDS011;8838;50.144;8.176;2023-06-24T11:40:59;5.60;;;4.22;;
17441;SDS011;8838;50.144;8.176;2023-06-24T11:43:26;6.68;;;4.32;;
17441;SDS011;8838;50.144;8.176;2023-06-24T11:45:53;6.78;;;3.90;;
17441;SDS011;8838;50.144;8.176;2023-06-24T11:48:20;5.88;;;3.72;;
17441;SDS011;8838;50.144;8.176;2023-06-24T11:50:52;6.28;;;4.07;;
17441;SDS011;8838;50.144;8.176;2023-06-24T11:53:22;7.15;;;4.25;;
17441;SDS011;8838;50.144;8.176;2023-06-24T11:55:55;5.18;;;4.68;;
17441;SDS011;8838;50.144;8.176;2023-06-24T11:58:24;7.70;;;3.83;;
17441;SDS011;8838;50.144;8.176;2023-06-24T12:00:50;5.55;;;4.13;;
17441;SDS011;8838;50.144;8.176;2023-06-24T12:03:22;5.88;;;4.20;;
17441;SDS011;8838;50.144;8.176;2023-06-24T12:05:50;4.20;;;3.78;;
17441;SDS011;8838;50.144;8.176;2023-06-24T12:08:17;6.80;;;4.45;;
17441;SDS011;8838;50.144;8.176;2023-06-24T12:10:44;5.30;;;4.22;;
17441;SDS011;8838;50.144;8.176;2023-06-24T12:13:11;4.38;;;3.80;;
17441;SDS011;8838;50.144;8.176;2023-06-24T12:15:39;4.85;;;3.95;;
17441;SDS011;8838;50.144;8.176;2023-06-24T12:18:06;7.18;;;3.85;;
17441;SDS011;8838;50.144;8.176;2023-06-24T12:20:33;4.00;;;3.67;;
17441;SDS011;8838;50.144;8.176;2023-06-24T12:23:01;5.55;;;3.70;;
17441;SDS011;8838;50.144;8.176;2023-06-24T12:25:29;7.13;;;4.15;;
17441;SDS011;8838;50.144;8.176;2023-06-24T12:27:56;4.28;;;3.88;;
17441;SDS011;8838;50.144;8.176;2023-06-24T12:30:24;4.55;;;3.75;;
17441;SDS011;8838;50.144;8.176;2023-06-24T12:32:52;4.82;;;3.78;;
17441;SDS011;8838;50.144;8.176;2023-06-24T12:35:19;5.53;;;3.88;;
17441;SDS011;8838;50.144;8.176;2023-06-24T12:37:46;6.22;;;4.10;;
17441;SDS011;8838;50.144;8.176;2023-06-24T12:40:13;6.03;;;4.13;;
17441;SDS011;8838;50.144;8.176;2023-06-24T12:42:40;4.72;;;3.75;;
17441;SDS011;8838;50.144;8.176;2023-06-24T12:45:08;8.02;;;4.43;;
17441;SDS011;8838;50.144;8.176;2023-06-24T12:47:38;3.92;;;3.53;;
17441;SDS011;8838;50.144;8.176;2023-06-24T12:50:07;6.13;;;3.90;;
17441;SDS011;8838;50.144;8.176;2023-06-24T12:52:34;5.20;;;4.00;;
17441;SDS011;8838;50.144;8.176;2023-06-24T12:55:02;5.57;;;4.18;;
17441;SDS011;8838;50.144;8.176;2023-06-24T12:57:29;7.28;;;4.10;;
17441;SDS011;8838;50.144;8.176;2023-06-24T12:59:56;5.88;;;3.90;;
17441;SDS011;8838;50.144;8.176;2023-06-24T13:02:23;6.05;;;3.97;;
17441;SDS011;8838;50.144;8.176;2023-06-24T13:04:49;6.10;;;3.92;;
17441;SDS011;8838;50.144;8.176;2023-06-24T13:07:18;4.63;;;4.10;;
17441;SDS011;8838;50.144;8.176;2023-06-24T13:09:46;7.38;;;4.38;;
17441;SDS011;8838;50.144;8.176;2023-06-24T13:12:13;6.97;;;5.20;;
17441;SDS011;8838;50.144;8.176;2023-06-24T13:14:40;8.10;;;4.97;;
17441;SDS011;8838;50.144;8.176;2023-06-24T13:17:07;6.13;;;4.22;;
17441;SDS011;8838;50.144;8.176;2023-06-24T13:19:34;9.80;;;4.00;;
17441;SDS011;8838;50.144;8.176;2023-06-24T13:22:00;5.60;;;4.22;;
17441;SDS011;8838;50.144;8.176;2023-06-24T13:24:28;5.47;;;4.35;;
17441;SDS011;8838;50.144;8.176;2023-06-24T13:26:56;5.95;;;3.70;;
17441;SDS011;8838;50.144;8.176;2023-06-24T13:29:22;5.68;;;4.00;;
17441;SDS011;8838;50.144;8.176;2023-06-24T13:31:49;8.52;;;4.20;;
17441;SDS011;8838;50.144;8.176;2023-06-24T13:34:16;5.43;;;4.10;;
17441;SDS011;8838;50.144;8.176;2023-06-24T13:36:43;5.10;;;4.10;;
17441;SDS011;8838;50.144;8.176;2023-06-24T13:39:09;5.00;;;4.18;;
17441;SDS011;8838;50.144;8.176;2023-06-24T13:41:39;4.97;;;3.85;;
17441;SDS011;8838;50.144;8.176;2023-06-24T13:44:06;6.43;;;4.00;;
17441;SDS011;8838;50.144;8.176;2023-06-24T13:46:32;5.50;;;4.00;;
17441;SDS011;8838;50.144;8.176;2023-06-24T13:49:02;4.78;;;4.07;;
17441;SDS011;8838;50.144;8.176;2023-06-24T13:51:29;6.15;;;4.32;;
17441;SDS011;8838;50.144;8.176;2023-06-24T13:53:55;5.47;;;4.35;;
17441;SDS011;8838;50.144;8.176;2023-06-24T13:56:22;7.22;;;4.22;;
17441;SDS011;8838;50.144;8.176;2023-06-24T13:58:52;5.28;;;3.63;;
17441;SDS011;8838;50.144;8.176;2023-06-24T14:01:19;4.30;;;3.90;;
17441;SDS011;8838;50.144;8.176;2023-06-24T14:03:47;4.90;;;4.32;;
17441;SDS011;8838;50.144;8.176;2023-06-24T14:06:14;6.55;;;4.38;;
17441;SDS011;8838;50.144;8.176;2023-06-24T14:08:43;4.55;;;4.00;;
17441;SDS011;8838;50.144;8.176;2023-06-24T14:11:10;6.00;;;4.18;;
17441;SDS011;8838;50.144;8.176;2023-06-24T14:13:37;4.93;;;3.80;;
17441;SDS011;8838;50.144;8.176;2023-06-24T14:16:05;5.00;;;4.15;;
17441;SDS011;8838;50.144;8.176;2023-06-24T14:18:32;4.95;;;4.10;;
17441;SDS011;8838;50.144;8.176;2023-06-24T14:20:59;5.47;;;3.97;;
17441;SDS011;8838;50.144;8.176;2023-06-24T14:23:27;4.28;;;3.75;;
17441;SDS011;8838;50.144;8.176;2023-06-24T14:25:54;4.40;;;4.00;;
17441;SDS011;8838;50.144;8.176;2023-06-24T14:28:21;4.38;;;3.95;;
17441;SDS011;8838;50.144;8.176;2023-06-24T14:30:51;7.15;;;4.03;;
17441;SDS011;8838;50.144;8.176;2023-06-24T14:33:19;4.90;;;4.18;;
17441;SDS011;8838;50.144;8.176;2023-06-24T14:35:46;5.63;;;4.50;;
17441;SDS011;8838;50.144;8.176;2023-06-24T14:38:12;6.72;;;4.32;;
17441;SDS011;8838;50.144;8.176;2023-06-24T14:40:39;4.95;;;4.03;;
17441;SDS011;8838;50.144;8.176;2023-06-24T14:43:06;5.85;;;4.18;;
17441;SDS011;8838;50.144;8.176;2023-06-24T14:45:33;5.60;;;4.25;;
17441;SDS011;8838;50.144;8.176;2023-06-24T14:48:00;6.72;;;4.50;;
17441;SDS011;8838;50.144;8.176;2023-06-24T14:50:28;8.43;;;4.45;;
17441;SDS011;8838;50.144;8.176;2023-06-24T14:52:54;5.50;;;3.85;;
17441;SDS011;8838;50.144;8.176;2023-06-24T14:55:21;6.28;;;4.18;;
17441;SDS011;8838;50.144;8.176;2023-06-24T14:57:48;4.70;;;4.20;;
17441;SDS011;8838;50.144;8.176;2023-06-24T15:00:15;5.18;;;4.43;;
17441;SDS011;8838;50.144;8.176;2023-06-24T15:02:42;6.25;;;4.70;;
17441;SDS011;8838;50.144;8.176;2023-06-24T15:05:09;6.38;;;4.25;;
17441;SDS011;8838;50.144;8.176;2023-06-24T15:07:37;6.70;;;4.10;;